NCAR-RAP Real-Time Weather Data

Output produced by METARs form (24 April 2018  16:25 UTC)
found at http://weather.rap.ucar.edu/surface/
 
RJNT 241200Z 19005KT 140V230 9999 -RA FEW008 BKN050 BKN070 17/15 Q1005
RJNT 241122Z 19007KT 150V240 9999 -RA FEW008 BKN050 BKN070 18/14 Q1005 RMK 1ST008 5SC050 7AS070 A2969
RJNT 241100Z 19007KT 150V220 5000 RA BR FEW008 SCT030 BKN060 17/14 Q1005
RJNT 241034Z 21006KT 4000 RA BR FEW005 BKN030 BKN050 17/14 Q1006 RMK 2ST005 5SC030 7SC050 A2972
RJNT 241029Z 20007KT 7000 RA FEW005 BKN030 BKN050 17/14 Q1006 RMK 2ST005 5SC030 7SC050 A2971
RJNT 241000Z 17011G26KT 130V210 9999 -RA FEW005 BKN040 BKN080 18/13 Q1005
RJNT 240915Z 17004G15KT 120V240 8000 -RA FEW005 BKN040 BKN080 17/14 Q1005 RMK 1ST005 5SC040 7AS080 A2970
RJNT 240906Z 21004KT 160V260 4000 RA BR FEW003 SCT008 BKN040 16/15 Q1006 RMK 1ST003 3ST008 7SC040 A2972
RJNT 240900Z 20006KT 160V260 6000 -RA FEW008 BKN040 OVC070 16/15 Q1006
RJNT 240800Z VRB01KT 8000 -RA FEW002 SCT040 OVC070 16/15 Q1006
RJNT 240700Z 33003KT 300V360 7000 -RA FEW002 SCT008 OVC070 16/15 Q1006
RJNT 240600Z 35004KT 7000 -RA FEW003 SCT008 OVC080 17/16 Q1007
RJNT 240500Z 35005KT 5000 -RA BR FEW005 SCT008 OVC080 16/15 Q1008
RJNT 240400Z 33003KT 300V360 3500 -RA BR SCT005 BKN008 OVC080 16/15 Q1009
RJNT 240300Z 31004KT 280V010 4000 -RA BR SCT006 BKN008 OVC080 16/15 Q1010
RJNT 240243Z 34003KT 300V360 4000 -RA BR SCT006 BKN010 OVC080 16/15 Q1010 RMK 3ST006 5ST010 8AS080 A2984
RJNT 240200Z 30003KT 270V020 3500 -RA BR FEW004 BKN005 BKN006 16/15 Q1011
RJNT 240100Z 33003KT 300V010 3500 -RA BR SCT004 BKN005 OVC080 15/14 Q1012
RJNT 240000Z VRB02KT 3500 -RA BR SCT004 BKN005 OVC080 15/14 Q1012
RJNT 232300Z VRB02KT 4500 -RA BR FEW003 SCT004 BKN005 14/13 Q1013
RJNT 232200Z 35003KT 4500 -RA BR FEW003 SCT004 BKN005 14/13 Q1013
RJNT 232110Z VRB02KT 4000 -RA BR FEW003 SCT004 BKN005 13/13 Q1014 RMK 1ST003 3ST004 6ST005 A2994
RJNT 231200Z VRB01KT 4500 -RA BR FEW005 SCT006 BKN007 14/13 Q1018
RJNT 231100Z 02005KT 4500 -RA BR FEW005 SCT006 BKN007 14/13 Q1018
RJNT 231000Z 36008KT 6000 FEW005 BKN009 BKN015 15/13 Q1018
RJNT 230900Z 36008KT 6000 FEW010 SCT015 BKN070 15/13 Q1017
RJNT 230800Z 36008KT 7000 FEW015 SCT160 BKN/// 17/13 Q1017
RJNT 230700Z 35007KT 320V020 9000 FEW010 SCT015 BKN020 17/13 Q1017
RJNT 230600Z 36009KT 8000 FEW010 BKN020 BKN/// 17/13 Q1017
RJNT 230500Z 34006KT 300V030 7000 FEW010 SCT020 BKN/// 18/13 Q1017
RJNT 230434Z 34010KT 7000 FEW010 SCT020 BKN/// 19/14 Q1017 RMK 1ST010 3SC020 A3005
RJNT 230400Z 26003KT 200V350 5000 BR FEW005 SCT012 BKN018 18/13 Q1017
RJNT 230300Z 34004KT 270V090 5000 BR FEW004 SCT008 BKN012 16/12 Q1018
RJNT 230200Z 03007KT 360V080 4000 BR FEW003 SCT006 BKN010 16/12 Q1019
RJNT 230100Z 36011KT 3000 BR FEW005 BKN008 BKN015 15/13 Q1020
RJNT 230040Z 36010KT 3000 BR FEW005 BKN010 BKN015 15/13 Q1020 RMK 1ST005 5CU010 7SC015 A3013
RJNT 230004Z 01010KT 4000 BR FEW005 BKN012 BKN015 15/13 Q1020 RMK 1ST005 5CU012 7SC015 A3013
RJNT 230000Z 36011KT 6000 BR FEW005 BKN012 BKN015 15/13 Q1020
RJNT 222300Z 03004KT 330V120 8000 BR FEW010 SCT015 BKN020 16/12 Q1020
RJNT 222200Z 07003KT 030V130 6000 BR FEW005 SCT010 BKN015 15/13 Q1020
RJNT 222110Z 04004KT 340V080 6000 FEW003 BKN009 15/13 Q1020 RMK 1ST003 7ST009 A3013
RJNT 221200Z 00000KT CAVOK 17/13 Q1019
RJNT 221100Z 31003KT 270V340 CAVOK 18/13 Q1019
RJNT 221000Z 30006KT CAVOK 19/13 Q1018
RJNT 220900Z 28004KT 240V320 CAVOK 22/12 Q1017
RJNT 220800Z 28005KT 210V330 CAVOK 24/11 Q1017
RJNT 220700Z 29009KT 260V340 CAVOK 25/10 Q1017
RJNT 220600Z 29010KT CAVOK 26/11 Q1017
RJNT 220500Z 30010KT 260V330 CAVOK 25/11 Q1018